• Join FlightAware (Why Join?)
  • Login
  • US Flag 
02:35AM EDT


 

Airport Tracker/Info


-or-


 

Live Flight TrackerFlight Track Log ✈ DAL1981 ✈ 03-May-2013 ✈ KALB - KATL

Flight Track Log - Related Links

Times and Time Zones

All times are in EDT time to prevent confusion due to time zone crossing. See the DAL1981 flight status page for this flight to view local times or setup timezone preferences in your user account.

Time Position Orientation Groundspeed Altitude Reporting Facility
EDT Latitude Longitude Course Direction KTS MPH feet Rate Location/Type
06:13AM 42.7297 -73.8081 180° South 136 157 1,500  Level Boston Center
06:14AM 42.6875 -73.8525 218° Southwest 240 276 3,600 2,340 Climbing Boston Center
06:15AM 42.7344 -73.9297 310° West 258 297 6,700 2,880 Climbing Boston Center
06:16AM 42.4229 -74.2571 198° South  Level Estimated
06:16AM 42.7625 -74.0239 292° West 268 308 9,600  Level Boston Center
06:17AM 42.3410 -74.3701 180° South  Level Estimated
06:17AM 42.7567 -74.1339 266° West 268 308 11,600  Level Boston Center
06:18AM 42.2590 -74.4828 180° South  Level Estimated
06:18AM 42.6811 -74.1686 199° South 266 306 13,700  Level Boston Center
06:19AM 42.5733 -74.1372 168° South 303 349 15,100 1,620 Climbing Boston Center
06:20AM 42.4364 -74.0914 166° South 412 474 17,300 1,680 Climbing Boston Center
06:21AM 42.3158 -74.0544 167° South 437 503 18,900 1,620 Climbing Boston Center
06:22AM 42.1911 -74.0372 174° South 448 516 20,600 1,620 Climbing Boston Center
06:23AM 42.0556 -74.0450 182° South 463 533 22,200 1,380 Climbing Boston Center
06:24AM 41.9219 -74.0528 182° South 482 555 23,700 1,440 Climbing Boston Center
06:25AM 41.7739 -74.0603 182° South 487 560 25,400 1,620 Climbing Boston Center
06:28AM 41.4403 -74.0781 182° South 486 559 29,300 1,500 Climbing New York Center
06:29AM 41.3067 -74.0881 183° South 486 559 30,700 1,260 Climbing New York Center
06:30AM 41.1939 -74.1736 210° Southwest 456 525 31,900 1,080 Climbing New York Center
06:31AM 41.0961 -74.3064 226° Southwest 456 525 32,900 840 Climbing New York Center
06:32AM 41.0131 -74.4339 229° Southwest 451 519 33,700 540 Climbing New York Center
06:33AM 40.9281 -74.5556 227° Southwest 456 525 34,000 120 Climbing New York Center
06:34AM 40.8469 -74.6800 229° Southwest 456 525 34,000  Level New York Center
06:35AM 40.7594 -74.8011 226° Southwest 456 525 34,000  Level New York Center
06:36AM 40.6761 -74.9219 228° Southwest 456 525 34,000  Level New York Center
06:37AM 40.5906 -75.0453 228° Southwest 456 525 34,000  Level New York Center
06:38AM 40.5050 -75.1628 226° Southwest 456 525 34,000  Level New York Center
06:39AM 40.4053 -75.2600 217° Southwest 450 518 34,000  Level New York Center
06:40AM 40.2997 -75.3539 214° Southwest 455 524 34,000 -60 Level New York Center
06:41AM 40.2019 -75.4533 218° Southwest 460 529 33,900  Descending New York Center
06:42AM 40.1261 -75.5786 232° Southwest 445 512 34,000  Climbing New York Center
06:43AM 40.0519 -75.7036 232° Southwest 445 512 34,000  Level New York Center
06:44AM 39.9803 -75.8258 233° Southwest 439 505 34,000  Level New York Center
06:46AM 39.8336 -76.0644 231° Southwest 447 514 34,000  Level Washington Center
06:47AM 39.7581 -76.1853 231° Southwest 442 509 34,000  Level Washington Center
06:48AM 39.6864 -76.3061 232° Southwest 437 503 34,000  Level Washington Center
06:49AM 39.6128 -76.4267 232° Southwest 437 503 34,000  Level Washington Center
06:50AM 39.5350 -76.5414 229° Southwest 437 503 34,000  Level Washington Center
06:51AM 39.4525 -76.6747 231° Southwest 437 503 34,000  Level Washington Center
06:52AM 39.3889 -76.7811 232° Southwest 437 503 34,000  Level Washington Center
06:53AM 39.3128 -76.8981 230° Southwest 437 503 34,000  Level Washington Center
06:54AM 39.2342 -77.0172 230° Southwest 437 503 34,000  Level Washington Center
06:55AM 39.1556 -77.1361 230° Southwest 437 503 34,000  Level Washington Center
06:56AM 39.0792 -77.2519 230° Southwest 437 503 34,000  Level Washington Center
06:57AM 39.0003 -77.3678 229° Southwest 437 503 34,000  Level Washington Center
06:58AM 38.9256 -77.4808 230° Southwest 432 497 34,000  Level Washington Center
06:59AM 38.8486 -77.5989 230° Southwest 432 497 34,000  Level Washington Center
07:00AM 38.7697 -77.7136 229° Southwest 432 497 34,000  Level Washington Center
07:01AM 38.6944 -77.8286 230° Southwest 432 497 34,000  Level Washington Center
07:02AM 38.6131 -77.9511 230° Southwest 426 490 34,000  Level Washington Center
07:03AM 38.5356 -78.0628 228° Southwest 426 490 34,000  Level Washington Center
07:04AM 38.4583 -78.1769 229° Southwest 426 490 34,000  Level Washington Center
07:05AM 38.3828 -78.2908 230° Southwest 426 490 34,000  Level Washington Center
07:06AM 38.3050 -78.4044 229° Southwest 426 490 34,000  Level Washington Center
07:07AM 38.2294 -78.5153 229° Southwest 426 490 34,000  Level Washington Center
07:08AM 38.1558 -78.6286 230° Southwest 426 490 34,000  Level Washington Center
07:09AM 38.0800 -78.7389 229° Southwest 426 490 34,000  Level Washington Center
07:10AM 38.0019 -78.8489 228° Southwest 426 490 34,000  Level Washington Center
07:11AM 37.9258 -78.9589 229° Southwest 426 490 34,000  Level Washington Center
07:12AM 37.8561 -79.0608 229° Southwest 426 490 34,000  Level Washington Center
07:13AM 37.7800 -79.1678 228° Southwest 426 490 34,000  Level Washington Center
07:14AM 37.6994 -79.2794 228° Southwest 426 490 34,000  Level Washington Center
07:15AM 37.6164 -79.3986 229° Southwest 426 490 34,000  Level Washington Center
07:16AM 37.5486 -79.4975 229° Southwest 426 490 34,000  Level Washington Center
07:17AM 37.4614 -79.6158 227° Southwest 426 490 34,000  Level Washington Center
07:18AM 37.3889 -79.7167 228° Southwest 433 498 34,000  Level Washington Center
07:20AM 37.2406 -79.9250 228° Southwest 426 490 34,000  Level Atlanta Center
07:21AM 37.1669 -80.0306 229° Southwest 421 484 34,000  Level Atlanta Center
07:22AM 37.0911 -80.1358 228° Southwest 411 473 34,000  Level Atlanta Center
07:23AM 37.0231 -80.2303 228° Southwest 411 473 34,000  Level Atlanta Center
07:24AM 36.9472 -80.3378 229° Southwest 411 473 34,000  Level Atlanta Center
07:25AM 36.8708 -80.4400 227° Southwest 411 473 34,000  Level Atlanta Center
07:26AM 36.7906 -80.5472 227° Southwest 406 467 34,000  Level Atlanta Center
07:27AM 36.7186 -80.6514 229° Southwest 400 460 34,000  Level Atlanta Center
07:28AM 36.6378 -80.7531 225° Southwest 411 473 34,000  Level Atlanta Center
07:29AM 36.5614 -80.8622 229° Southwest 411 473 34,000  Level Atlanta Center
07:30AM 36.4828 -80.9661 227° Southwest 411 473 34,000  Level Atlanta Center
07:31AM 36.4061 -81.0697 227° Southwest 411 473 34,000  Level Atlanta Center
07:32AM 36.3211 -81.1836 227° Southwest 406 467 34,000  Level Atlanta Center
07:33AM 36.2422 -81.2894 227° Southwest 406 467 34,000  Level Atlanta Center
07:34AM 36.1672 -81.3897 227° Southwest 406 467 34,000  Level Atlanta Center
07:35AM 36.0922 -81.4897 227° Southwest 406 467 34,000  Level Atlanta Center
07:36AM 36.0214 -81.5894 229° Southwest 400 460 34,000  Level Atlanta Center
07:37AM 35.9439 -81.6894 226° Southwest 395 455 34,000  Level Atlanta Center
07:38AM 35.8708 -81.7889 228° Southwest 395 455 34,000  Level Atlanta Center
07:39AM 35.7953 -81.8881 227° Southwest 395 455 34,000  Level Atlanta Center
07:40AM 35.7219 -81.9822 226° Southwest 390 449 34,000  Level Atlanta Center
07:41AM 35.6464 -82.0811 227° Southwest 390 449 34,000 -780 Level Atlanta Center
07:42AM 35.5747 -82.1775 228° Southwest 390 449 32,500 -1,920 Descending Atlanta Center
07:43AM 35.4950 -82.2786 226° Southwest 402 463 30,200 -1,260 Descending Atlanta Center
07:44AM 35.4128 -82.3822 226° Southwest 407 468 30,000 -720 Descending Atlanta Center
07:45AM 35.3369 -82.4706 224° Southwest 420 483 28,800 -1,080 Descending Atlanta Center
07:46AM 35.2506 -82.5661 222° Southwest 420 483 27,900 -900 Descending Atlanta Center
07:47AM 35.1639 -82.6592 221° Southwest 420 483 27,100 -900 Descending Atlanta Center
07:48AM 35.0814 -82.7544 223° Southwest 420 483 26,200 -1,380 Descending Atlanta Center
07:49AM 34.9989 -82.8469 223° Southwest 412 474 24,400 -1,140 Descending Atlanta Center
07:50AM 34.9225 -82.9317 222° Southwest 393 452 24,000 -240 Descending Atlanta Center
07:51AM 34.8378 -83.0264 223° Southwest 379 436 24,000  Level Atlanta Center
07:52AM 34.7592 -83.1108 221° Southwest 379 436 24,000  Level Atlanta Center
07:53AM 34.6806 -83.1978 222° Southwest 384 442 24,000  Level Atlanta Center
07:54AM 34.5997 -83.2842 221° Southwest 384 442 24,000  Level Atlanta Center
07:55AM 34.5106 -83.3833 223° Southwest 412 474 24,000 -300 Level Atlanta Center
07:56AM 34.4211 -83.4797 222° Southwest 423 487 23,500 -960 Descending Atlanta Center
07:57AM 34.3381 -83.5733 223° Southwest 423 487 22,100 -1,980 Descending Atlanta Center
07:58AM 34.2508 -83.6644 221° Southwest 423 487 19,600 -2,640 Descending Atlanta Center
07:59AM 34.1697 -83.7550 223° Southwest 409 471 16,900 -2,520 Descending Atlanta Center
08:00AM 34.0967 -83.8331 222° Southwest 399 459 14,600 -1,920 Descending Atlanta Center
08:00AM 34.0500 -83.8833 222° Southwest 384 442 14,000 -1,260 Descending Atlanta TRACON
08:01AM 33.9667 -83.9667 220° Southwest 384 442 12,700 -1,080 Descending Atlanta TRACON
08:02AM 33.9000 -84.0500 226° Southwest 379 436 12,000 -480 Descending Atlanta TRACON
08:03AM 33.8589 -84.0889 218° Southwest 388 447 12,000  Level Atlanta Center
08:04AM 33.7650 -84.1589 212° Southwest 373 429 12,000  Level Atlanta Center
08:04AM 33.7333 -84.1833 213° Southwest 315 362 12,000  Level Atlanta TRACON
08:05AM 33.7333 -84.2667 270° West 318 366 12,000 -720 Level Atlanta TRACON
08:06AM 33.7333 -84.3833 270° West 318 366 10,700 -1,560 Descending Atlanta TRACON
08:07AM 33.7333 -84.4667 270° West 316 364 9,100 -1,740 Descending Atlanta TRACON
08:08AM 33.7333 -84.5833 270° West 302 348 7,500 -1,620 Descending Atlanta TRACON
08:09AM 33.7333 -84.6833 270° West 298 343 5,900 -1,260 Descending Atlanta TRACON
08:10AM 33.7333 -84.7833 270° West 297 342 5,000 -480 Descending Atlanta TRACON
08:11AM 33.7333 -84.8667 270° West 272 313 5,000  Level Atlanta TRACON
08:12AM 33.7167 -84.9333 253° West 258 297 5,000  Level Atlanta TRACON
08:13AM 33.6667 -84.9167 164° South 194 223 5,000 -60 Level Atlanta TRACON
08:14AM 33.6500 -84.8667 112° Southeast 192 221 4,900  Descending Atlanta TRACON
08:15AM 33.6500 -84.8000 90° East 191 220 5,000  Climbing Atlanta TRACON
08:16AM 33.6500 -84.7500 90° East 169 194 5,000  Level Atlanta TRACON
08:17AM 33.6500 -84.6833 90° East 170 196 5,000 -420 Level Atlanta TRACON
08:18AM 33.6500 -84.6333 90° East 182 209 4,200 -840 Descending Atlanta TRACON